createdAt,value
2019-06-20T00:01:42.980Z,8.20
2019-06-20T00:04:35.878Z,8.03
2019-06-20T00:07:24.420Z,9.07
2019-06-20T00:10:12.933Z,8.50
2019-06-20T00:12:42.420Z,8.17
2019-06-20T00:15:30.915Z,7.70
2019-06-20T00:18:19.500Z,7.97
2019-06-20T00:20:49.012Z,8.87
2019-06-20T00:23:37.553Z,9.37
2019-06-20T00:26:26.043Z,8.60
2019-06-20T00:29:14.585Z,9.40
2019-06-20T00:31:44.096Z,7.97
2019-06-20T00:34:13.605Z,8.23
2019-06-20T00:37:02.109Z,8.43
2019-06-20T00:39:31.627Z,11.27
2019-06-20T00:42:20.438Z,10.60
2019-06-20T00:44:49.956Z,11.00
2019-06-20T00:47:38.601Z,11.80
2019-06-20T00:53:22.431Z,10.63
2019-06-20T00:56:10.952Z,13.20
2019-06-20T00:58:40.460Z,12.33
2019-06-20T01:01:29.012Z,10.50
2019-06-20T01:03:58.502Z,10.67
2019-06-20T01:06:47.098Z,9.17
2019-06-20T01:09:35.573Z,10.47
2019-06-20T01:12:24.110Z,9.90
2019-06-20T01:15:12.760Z,12.27
2019-06-20T01:18:01.410Z,14.90
2019-06-20T01:20:49.945Z,11.80
2019-06-20T01:23:38.465Z,8.27
2019-06-20T01:26:27.013Z,11.23
2019-06-20T01:29:15.553Z,9.67
2019-06-20T01:31:45.029Z,8.23
2019-06-20T01:34:33.594Z,8.33
2019-06-20T01:37:22.087Z,9.10
2019-06-20T01:40:10.726Z,11.93
2019-06-20T01:42:59.237Z,10.67
2019-06-20T01:45:28.748Z,9.97
2019-06-20T01:48:17.256Z,9.30
2019-06-20T01:51:05.789Z,14.40
2019-06-20T01:53:54.289Z,10.60
2019-06-20T01:56:23.790Z,12.47
2019-06-20T01:59:12.292Z,10.23
2019-06-20T02:01:53.270Z,11.13
2019-06-20T02:04:22.756Z,9.93
2019-06-20T02:07:11.302Z,10.03
2019-06-20T02:09:59.852Z,14.43
2019-06-20T02:15:18.013Z,10.47
2019-06-20T02:18:06.557Z,11.23
2019-06-20T02:21:15.419Z,9.20
2019-06-20T02:24:04.062Z,10.53
2019-06-20T02:26:52.569Z,10.83
2019-06-20T02:29:22.075Z,14.27
2019-06-20T02:32:09.974Z,9.53
2019-06-20T02:34:57.877Z,12.33
2019-06-20T02:37:46.262Z,10.33
2019-06-20T02:40:15.753Z,9.63
2019-06-20T02:43:04.712Z,9.83
2019-06-20T02:45:53.230Z,12.17
2019-06-20T02:48:22.717Z,10.43
2019-06-20T02:51:11.243Z,14.67
2019-06-20T02:53:40.758Z,9.73
2019-06-20T02:56:10.286Z,11.70
2019-06-20T02:58:59.114Z,10.17
2019-06-20T03:01:30.149Z,9.77
2019-06-20T03:04:18.699Z,10.73
2019-06-20T03:07:07.205Z,10.27
2019-06-20T03:09:55.830Z,10.83
2019-06-20T03:12:25.343Z,10.60
2019-06-20T03:15:14.004Z,11.27
2019-06-20T03:18:02.610Z,10.97
2019-06-20T03:20:51.164Z,11.77
2019-06-20T03:23:20.680Z,11.07
2019-06-20T03:25:50.168Z,10.07
2019-06-20T03:28:19.841Z,14.90
2019-06-20T03:31:08.400Z,11.47
2019-06-20T03:33:56.948Z,10.17
2019-06-20T03:36:26.428Z,11.53
2019-06-20T03:39:15.005Z,10.77
2019-06-20T03:42:03.510Z,12.77
2019-06-20T03:45:01.760Z,10.73
2019-06-20T03:47:23.178Z,11.23
2019-06-20T03:50:11.734Z,11.17
2019-06-20T03:52:41.223Z,11.30
2019-06-20T03:55:11.911Z,10.07
2019-06-20T03:58:00.974Z,11.40
2019-06-20T04:00:49.587Z,12.17
2019-06-20T04:03:19.199Z,11.10
2019-06-20T04:06:07.746Z,11.37
2019-06-20T04:08:56.310Z,12.33
2019-06-20T04:11:25.890Z,14.43
2019-06-20T04:14:14.457Z,11.20
2019-06-20T04:16:43.974Z,11.67
2019-06-20T04:19:13.486Z,11.90
2019-06-20T04:22:01.994Z,11.47
2019-06-20T04:24:50.559Z,13.03
2019-06-20T04:27:20.174Z,10.87
2019-06-20T04:30:14.462Z,12.10
2019-06-20T04:33:02.988Z,10.93
2019-06-20T04:38:26.881Z,10.83
2019-06-20T04:41:15.437Z,12.43
2019-06-20T04:44:04.303Z,11.00
2019-06-20T04:49:52.133Z,10.70
2019-06-20T04:52:21.633Z,11.97
2019-06-20T04:54:51.114Z,11.57
2019-06-20T04:57:20.575Z,11.17
2019-06-20T05:00:09.597Z,10.90
2019-06-20T05:02:58.207Z,10.57
2019-06-20T05:05:27.846Z,10.87
2019-06-20T05:07:57.320Z,11.13
2019-06-20T05:10:26.878Z,11.87
2019-06-20T05:13:15.452Z,11.93
2019-06-20T05:15:52.704Z,11.60
2019-06-20T05:18:16.370Z,11.13
2019-06-20T05:21:04.934Z,11.03
2019-06-20T05:23:34.410Z,10.43
2019-06-20T05:26:22.966Z,10.50
2019-06-20T05:29:11.493Z,10.77
2019-06-20T05:32:00.046Z,10.97
2019-06-20T05:34:48.600Z,10.53
2019-06-20T05:37:18.070Z,9.73
2019-06-20T05:40:06.768Z,10.33
2019-06-20T05:42:55.362Z,10.07
2019-06-20T05:45:24.983Z,9.50
2019-06-20T05:48:13.594Z,9.97
2019-06-20T05:51:02.158Z,10.43
2019-06-20T05:53:31.650Z,9.93
2019-06-20T05:56:20.209Z,9.27
2019-06-20T05:59:08.729Z,8.10
2019-06-20T06:01:57.370Z,8.50
2019-06-20T06:04:38.354Z,7.43
2019-06-20T06:07:07.927Z,6.43
2019-06-20T06:09:56.548Z,6.33
2019-06-20T06:12:26.022Z,4.77
2019-06-20T06:15:14.582Z,4.83
2019-06-20T06:17:56.301Z,4.30
2019-06-20T06:20:25.897Z,4.13
2019-06-20T06:23:14.435Z,4.33
2019-06-20T06:26:02.993Z,4.27
2019-06-20T06:28:51.533Z,4.50
2019-06-20T06:31:21.059Z,4.77
2019-06-20T06:34:09.612Z,5.07
2019-06-20T06:36:58.125Z,4.60
2019-06-20T06:39:27.592Z,4.67
2019-06-20T06:42:16.173Z,5.80
2019-06-20T06:45:05.578Z,6.67
2019-06-20T06:47:54.216Z,6.00
2019-06-20T06:50:24.211Z,5.63
2019-06-20T06:53:12.752Z,5.27
2019-06-20T06:56:01.403Z,5.40
2019-06-20T06:58:49.980Z,5.97
2019-06-20T07:01:38.531Z,5.60
2019-06-20T07:04:27.182Z,5.50
2019-06-20T07:06:57.116Z,5.80
2019-06-20T07:09:26.620Z,5.77
2019-06-20T07:12:08.224Z,6.13
2019-06-20T07:14:49.731Z,5.90
2019-06-20T07:17:19.278Z,5.57
2019-06-20T07:20:08.511Z,5.63
2019-06-20T07:22:57.058Z,5.67
2019-06-20T07:25:26.541Z,4.80
2019-06-20T07:28:15.094Z,5.53
2019-06-20T07:31:02.873Z,6.10
2019-06-20T07:33:51.452Z,5.03
2019-06-20T07:36:20.930Z,4.87
2019-06-20T07:38:50.517Z,4.30
2019-06-20T07:41:19.963Z,4.03
2019-06-20T07:43:49.480Z,4.30
2019-06-20T07:46:19.834Z,4.03
2019-06-20T07:48:49.298Z,5.07
2019-06-20T07:51:18.858Z,4.37
2019-06-20T07:54:07.358Z,3.87
2019-06-20T07:56:55.928Z,3.00
2019-06-20T07:59:25.488Z,4.67
2019-06-20T08:02:14.047Z,3.30
2019-06-20T08:05:02.563Z,3.20
2019-06-20T08:07:43.784Z,3.10
2019-06-20T08:10:13.904Z,2.77
2019-06-20T08:13:02.546Z,2.40
2019-06-20T08:15:51.051Z,2.07
2019-06-20T08:18:20.590Z,2.47
2019-06-20T08:21:09.129Z,2.07
2019-06-20T08:23:38.644Z,2.23
2019-06-20T08:26:27.136Z,2.07
2019-06-20T08:29:21.098Z,2.40
2019-06-20T08:32:06.612Z,2.20
2019-06-20T08:38:03.750Z,2.50
2019-06-20T08:40:53.029Z,2.40
2019-06-20T08:43:41.601Z,2.00
2019-06-20T08:46:30.140Z,2.87
2019-06-20T08:49:18.678Z,3.03
2019-06-20T08:52:07.276Z,3.50
2019-06-20T08:54:36.922Z,2.57
2019-06-20T08:57:06.473Z,3.27
2019-06-20T08:59:35.992Z,2.50
2019-06-20T09:04:35.181Z,2.87
2019-06-20T09:09:34.270Z,3.00
2019-06-20T09:12:04.969Z,2.60
2019-06-20T09:14:34.658Z,3.00
2019-06-20T09:17:04.301Z,2.53
2019-06-20T09:19:33.921Z,4.20
2019-06-20T09:22:05.031Z,3.40
2019-06-20T09:24:41.242Z,3.60
2019-06-20T09:27:17.537Z,3.37
2019-06-20T09:29:47.115Z,3.77
2019-06-20T09:32:16.618Z,3.40
2019-06-20T09:34:46.184Z,3.20
2019-06-20T09:37:15.688Z,7.37
2019-06-20T09:39:52.085Z,4.17
2019-06-20T09:42:27.107Z,4.33
2019-06-20T09:44:56.594Z,4.13
2019-06-20T09:47:26.300Z,3.87
2019-06-20T09:49:59.254Z,8.03
2019-06-20T09:52:28.764Z,3.20
2019-06-20T09:54:58.344Z,3.37
2019-06-20T09:57:38.542Z,3.63
2019-06-20T10:00:21.056Z,3.70
2019-06-20T10:02:52.451Z,3.40
2019-06-20T10:05:23.034Z,3.77
2019-06-20T10:07:56.923Z,3.20
2019-06-20T10:10:38.728Z,3.30
2019-06-20T10:13:11.100Z,3.67
2019-06-20T10:15:46.682Z,3.43
2019-06-20T10:18:16.594Z,4.17
2019-06-20T10:20:51.190Z,3.00
2019-06-20T10:23:21.874Z,3.60
2019-06-20T10:25:54.055Z,3.90
2019-06-20T10:28:27.354Z,3.03
2019-06-20T10:31:00.321Z,3.10
2019-06-20T10:33:31.929Z,3.00
2019-06-20T10:36:03.637Z,3.47
2019-06-20T10:38:53.906Z,3.77
2019-06-20T10:41:44.688Z,3.20
2019-06-20T10:44:14.818Z,3.00
2019-06-20T10:46:46.138Z,3.10
2019-06-20T10:49:17.692Z,2.90
2019-06-20T10:51:52.317Z,3.07
2019-06-20T10:54:25.092Z,2.93
2019-06-20T10:57:01.135Z,4.13
2019-06-20T11:02:29.812Z,2.60
2019-06-20T11:05:12.502Z,2.90
2019-06-20T11:07:40.758Z,2.50
2019-06-20T11:13:03.800Z,3.07
2019-06-20T11:15:39.280Z,2.27
2019-06-20T11:18:09.082Z,2.30
2019-06-20T11:20:59.517Z,2.47
2019-06-20T11:23:38.187Z,2.60
2019-06-20T11:26:11.029Z,4.13
2019-06-20T11:31:51.643Z,2.70
2019-06-20T11:34:44.949Z,2.70
2019-06-20T11:37:18.710Z,2.83
2019-06-20T11:39:51.288Z,2.40
2019-06-20T11:42:27.336Z,2.17
2019-06-20T11:45:02.900Z,2.83
2019-06-20T11:47:38.200Z,3.03
2019-06-20T11:52:58.089Z,2.60
2019-06-20T11:55:28.747Z,2.37
2019-06-20T11:58:00.918Z,2.53
2019-06-20T12:00:31.853Z,3.17
2019-06-20T12:03:05.988Z,2.77
2019-06-20T12:05:36.536Z,2.77
2019-06-20T12:08:06.003Z,3.23
2019-06-20T12:10:38.035Z,3.07
2019-06-20T12:13:11.122Z,3.10
2019-06-20T12:15:42.836Z,2.60
2019-06-20T12:18:15.552Z,2.90
2019-06-20T12:20:49.979Z,2.60
2019-06-20T12:23:22.221Z,3.53
2019-06-20T12:25:52.902Z,3.50
2019-06-20T12:28:23.179Z,3.10
2019-06-20T12:30:53.036Z,2.77
2019-06-20T12:33:23.497Z,2.47
2019-06-20T12:35:53.653Z,2.53
2019-06-20T12:38:24.238Z,2.50
2019-06-20T12:40:55.042Z,2.30
2019-06-20T12:43:25.549Z,3.03
2019-06-20T12:46:00.253Z,2.00
2019-06-20T12:48:33.037Z,2.30
2019-06-20T12:51:04.562Z,3.07
2019-06-20T12:53:38.672Z,2.83
2019-06-20T12:56:29.831Z,2.93
2019-06-20T12:59:00.667Z,2.10
2019-06-20T13:01:36.908Z,3.93
2019-06-20T13:04:06.011Z,2.30
2019-06-20T13:06:37.659Z,2.20
2019-06-20T13:09:07.798Z,2.60
2019-06-20T13:11:39.126Z,2.30
2019-06-20T13:14:30.322Z,2.53
2019-06-20T13:17:04.344Z,2.17
2019-06-20T13:19:34.440Z,2.43
2019-06-20T13:22:06.708Z,2.53
2019-06-20T13:24:37.940Z,2.20
2019-06-20T13:27:10.235Z,2.20
2019-06-20T13:29:43.519Z,3.83
2019-06-20T13:32:13.350Z,3.13
2019-06-20T13:34:46.944Z,2.27
2019-06-20T13:37:21.029Z,2.10
2019-06-20T13:39:54.262Z,1.90
2019-06-20T13:42:24.016Z,4.80
2019-06-20T13:45:02.171Z,2.27
2019-06-20T13:47:31.721Z,2.70
2019-06-20T13:50:03.087Z,2.30
2019-06-20T13:52:38.390Z,2.07
2019-06-20T13:55:08.990Z,1.87
2019-06-20T13:57:41.193Z,2.27
2019-06-20T14:03:01.877Z,2.23
2019-06-20T14:05:32.704Z,2.60
2019-06-20T14:08:02.738Z,2.77
2019-06-20T14:10:35.827Z,2.10
2019-06-20T14:13:18.587Z,2.50
2019-06-20T14:15:39.059Z,5.27
2019-06-20T14:18:08.524Z,5.63
2019-06-20T14:20:38.031Z,3.20
2019-06-20T14:23:07.511Z,2.97
2019-06-20T14:25:36.969Z,2.77
2019-06-20T14:28:06.480Z,4.53
2019-06-20T14:30:35.940Z,3.67
2019-06-20T14:33:05.439Z,5.40
2019-06-20T14:35:34.938Z,6.10
2019-06-20T14:38:04.438Z,5.53
2019-06-20T14:40:33.959Z,6.07
2019-06-20T14:43:03.538Z,7.47
2019-06-20T14:45:33.020Z,8.67
2019-06-20T14:48:04.020Z,5.57
2019-06-20T14:50:33.602Z,5.60
2019-06-20T14:53:03.080Z,4.10
2019-06-20T14:55:51.740Z,5.13
2019-06-20T14:58:40.387Z,4.13
2019-06-20T15:01:28.885Z,6.03
2019-06-20T15:03:58.411Z,5.20
2019-06-20T15:06:48.411Z,4.30
2019-06-20T15:09:29.331Z,4.10
2019-06-20T15:11:58.845Z,4.57
2019-06-20T15:14:48.322Z,4.07
2019-06-20T15:17:37.402Z,3.43
2019-06-20T15:20:25.902Z,3.53
2019-06-20T15:22:56.623Z,3.40
2019-06-20T15:25:45.833Z,4.70
2019-06-20T15:28:35.460Z,4.60
2019-06-20T15:31:04.983Z,3.03
2019-06-20T15:33:54.799Z,3.73
2019-06-20T15:36:43.591Z,4.10
2019-06-20T15:39:32.169Z,4.03
2019-06-20T15:42:01.766Z,6.03
2019-06-20T15:44:51.942Z,4.00
2019-06-20T15:47:40.447Z,3.37
2019-06-20T15:50:28.973Z,3.90
2019-06-20T15:52:58.457Z,3.93
2019-06-20T15:55:46.988Z,3.37
2019-06-20T15:58:35.500Z,3.70
2019-06-20T16:01:04.993Z,3.67
2019-06-20T16:03:53.532Z,3.67
2019-06-20T16:06:42.064Z,3.80
2019-06-20T16:09:30.576Z,4.03
2019-06-20T16:12:00.147Z,4.00
2019-06-20T16:14:48.645Z,4.00
2019-06-20T16:17:37.356Z,3.90
2019-06-20T16:20:25.884Z,3.50
2019-06-20T16:22:55.365Z,4.53
2019-06-20T16:25:43.903Z,4.13
2019-06-20T16:28:32.421Z,4.57
2019-06-20T16:31:10.195Z,4.93
2019-06-20T16:33:52.127Z,4.80
2019-06-20T16:36:40.677Z,4.77
2019-06-20T16:39:29.211Z,3.87
2019-06-20T16:41:58.735Z,4.27
2019-06-20T16:44:47.256Z,4.87
2019-06-20T16:47:35.883Z,5.00
2019-06-20T16:50:44.780Z,4.40
2019-06-20T16:53:33.338Z,4.20
2019-06-20T16:56:02.895Z,4.90
2019-06-20T16:58:51.537Z,5.03
2019-06-20T17:01:20.973Z,4.90
2019-06-20T17:03:50.450Z,6.23
2019-06-20T17:06:39.020Z,5.47
2019-06-20T17:09:27.563Z,5.90
2019-06-20T17:11:57.048Z,6.10
2019-06-20T17:14:45.588Z,6.10
2019-06-20T17:17:34.077Z,6.40
2019-06-20T17:20:03.645Z,6.20
2019-06-20T17:22:52.152Z,7.03
2019-06-20T17:25:40.704Z,6.17
2019-06-20T17:28:29.215Z,5.93
2019-06-20T17:30:58.756Z,5.83
2019-06-20T17:33:57.178Z,5.17
2019-06-20T17:36:18.896Z,5.17
2019-06-20T17:38:49.605Z,5.23
2019-06-20T17:41:38.466Z,5.03
2019-06-20T17:44:28.336Z,5.30
2019-06-20T17:46:57.968Z,4.53
2019-06-20T17:49:46.655Z,4.23
2019-06-20T17:52:35.330Z,5.00
2019-06-20T17:57:59.878Z,4.77
2019-06-20T18:00:29.864Z,5.23
2019-06-20T18:02:59.515Z,4.37
2019-06-20T18:05:48.223Z,4.10
2019-06-20T18:08:36.844Z,4.23
2019-06-20T18:11:25.366Z,4.20
2019-06-20T18:13:54.896Z,4.33
2019-06-20T18:16:43.406Z,4.33
2019-06-20T18:19:12.917Z,3.83
2019-06-20T18:22:01.431Z,4.27
2019-06-20T18:24:49.960Z,4.53
2019-06-20T18:27:38.473Z,3.87
2019-06-20T18:30:52.694Z,4.80
2019-06-20T18:33:41.196Z,4.27
2019-06-20T18:36:29.736Z,4.23
2019-06-20T18:38:59.220Z,4.50
2019-06-20T18:41:47.766Z,4.83
2019-06-20T18:44:36.272Z,4.53
2019-06-20T18:47:24.805Z,4.70
2019-06-20T18:49:54.290Z,4.60
2019-06-20T18:53:01.857Z,9.33
2019-06-20T18:55:50.363Z,4.77
2019-06-20T18:58:38.928Z,6.83
2019-06-20T19:01:27.432Z,4.57
2019-06-20T19:03:56.949Z,5.20
2019-06-20T19:06:45.468Z,5.87
2019-06-20T19:09:34.018Z,5.37
2019-06-20T19:12:03.485Z,5.70
2019-06-20T19:14:44.291Z,5.20
2019-06-20T19:17:25.800Z,8.10
2019-06-20T19:19:55.350Z,5.37
2019-06-20T19:22:24.861Z,6.97
2019-06-20T19:24:54.339Z,6.13
2019-06-20T19:27:46.709Z,5.57
2019-06-20T19:30:52.120Z,6.17
2019-06-20T19:33:40.024Z,6.43
2019-06-20T19:36:28.587Z,5.47
2019-06-20T19:38:58.045Z,5.70
2019-06-20T19:41:46.622Z,6.83
2019-06-20T19:47:28.843Z,7.80
2019-06-20T19:49:58.362Z,6.90
2019-06-20T19:52:27.882Z,6.40
2019-06-20T19:54:57.381Z,7.07
2019-06-20T19:57:45.913Z,7.20
2019-06-20T20:00:34.423Z,7.87
2019-06-20T20:03:04.056Z,18.20
2019-06-20T20:05:52.591Z,8.13
2019-06-20T20:08:40.500Z,7.77
2019-06-20T20:11:28.384Z,7.17
2019-06-20T20:13:57.932Z,7.80
2019-06-20T20:16:46.428Z,11.00
2019-06-20T20:19:15.946Z,7.97
2019-06-20T20:22:06.652Z,8.40
2019-06-20T20:24:54.762Z,7.80
2019-06-20T20:27:24.269Z,7.67
2019-06-20T20:30:12.970Z,8.00
2019-06-20T20:33:02.180Z,8.33
2019-06-20T20:35:51.686Z,8.77
2019-06-20T20:38:21.197Z,8.40
2019-06-20T20:41:09.730Z,9.50
2019-06-20T20:43:58.305Z,11.40
2019-06-20T20:46:46.829Z,9.07
2019-06-20T20:49:16.342Z,9.53
2019-06-20T20:51:56.005Z,8.50
2019-06-20T20:54:25.537Z,9.77
2019-06-20T20:56:55.005Z,10.70
2019-06-20T20:59:24.597Z,10.33
2019-06-20T21:01:55.012Z,11.43
2019-06-20T21:04:24.469Z,11.67
2019-06-20T21:06:53.971Z,10.43
2019-06-20T21:09:23.489Z,10.40
2019-06-20T21:11:52.992Z,10.17
2019-06-20T21:14:22.456Z,11.53
2019-06-20T21:16:51.919Z,11.90
2019-06-20T21:19:21.434Z,11.20
2019-06-20T21:21:50.891Z,11.53
2019-06-20T21:24:20.519Z,17.13
2019-06-20T21:26:50.361Z,12.53
2019-06-20T21:29:19.955Z,11.97
2019-06-20T21:31:49.634Z,11.53
2019-06-20T21:34:19.265Z,12.00
2019-06-20T21:36:48.708Z,12.70
2019-06-20T21:39:18.234Z,12.63
2019-06-20T21:41:47.752Z,11.33
2019-06-20T21:44:17.712Z,12.40
2019-06-20T21:46:47.263Z,12.30
2019-06-20T21:49:17.265Z,12.10
2019-06-20T21:51:46.964Z,13.53
2019-06-20T21:54:16.437Z,12.50
2019-06-20T21:56:46.061Z,13.27
2019-06-20T21:59:16.056Z,12.93
2019-06-20T22:01:48.387Z,12.63
2019-06-20T22:04:17.014Z,12.77
2019-06-20T22:06:46.681Z,13.73
2019-06-20T22:09:16.517Z,11.90
2019-06-20T22:11:46.183Z,12.53
2019-06-20T22:14:16.006Z,11.90
2019-06-20T22:16:45.637Z,12.70
2019-06-20T22:19:15.467Z,11.77
2019-06-20T22:21:45.005Z,13.23
2019-06-20T22:24:14.481Z,13.27
2019-06-20T22:26:44.049Z,12.60
2019-06-20T22:29:13.609Z,15.07
2019-06-20T22:31:43.320Z,13.60
2019-06-20T22:34:12.938Z,14.70
2019-06-20T22:36:42.453Z,12.73
2019-06-20T22:39:11.954Z,13.40
2019-06-20T22:41:41.525Z,13.70
2019-06-20T22:44:11.094Z,13.97
2019-06-20T22:46:40.636Z,13.43
2019-06-20T22:49:10.125Z,13.47
2019-06-20T22:51:39.629Z,13.37
2019-06-20T22:54:09.165Z,15.20
2019-06-20T22:56:38.675Z,13.27
2019-06-20T23:01:42.766Z,14.47
2019-06-20T23:04:12.242Z,13.00
2019-06-20T23:06:55.297Z,13.57
2019-06-20T23:09:15.248Z,14.33
2019-06-20T23:11:44.842Z,12.97
2019-06-20T23:14:14.464Z,13.93
2019-06-20T23:16:43.983Z,12.90
2019-06-20T23:19:13.496Z,13.13
2019-06-20T23:21:43.063Z,13.83
2019-06-20T23:24:12.734Z,14.17
2019-06-20T23:26:42.213Z,14.87
2019-06-20T23:29:23.736Z,13.53
2019-06-20T23:31:54.514Z,13.77
2019-06-20T23:34:24.047Z,14.23
2019-06-20T23:36:53.536Z,14.67
2019-06-20T23:39:23.030Z,14.27
2019-06-20T23:41:52.531Z,15.17
2019-06-20T23:44:22.016Z,16.60
2019-06-20T23:46:51.535Z,14.70
2019-06-20T23:49:21.044Z,14.00
2019-06-20T23:52:04.724Z,12.87
2019-06-20T23:54:34.283Z,13.33
2019-06-20T23:57:03.799Z,13.47
2019-06-20T23:59:33.286Z,13.73
